Terminal Aerodrome Forecast
Issued by NWS

Home | Current Version | Previous Version | Text Only | Print | Product List | Glossary On
Versions: 1 2 3 4 5 6 7 8 9 10 11 12 13 14 15 16 17 18
000
FTUS45 KTFX 240534
TAFCTB
TAF
KCTB 240534Z 2406/2506 27019G35KT P6SM VCSH FEW030 BKN040 BKN070
      TEMPO 2406/2407 -SHRA BKN035
     FM240700 27020G36KT P6SM FEW035 FEW110
      TEMPO 2407/2410 BKN035
     FM241500 26019G29KT P6SM SCT060 BKN250=

USA.gov is the U.S. government's official web portal to all federal, state and local government web resources and services.